RYR7445 EGSS-LFOT
Flight info
| Callsign | RYR7445 |
|---|---|
| Flight time | 1h 8m |
| Altitude | 26000 |
| Route | NUGBO M183 SILVA Q41 COWLY/N0439F270 UT71 VAPID UN859 AMB |
| Aircraft | B738/M-SDE2E3FGHIRWXY/LB1 |
Departure
| Time | 2026-04-21 15:40 |
|---|---|
| Airport | London Stansted Airport (EGSS) |
Arrival
| Time | 2026-04-21 16:49 |
|---|---|
| Airport | Tours Val de Loire Airport (LFOT) |
| Time | Latitude | Longitude | Altitude | Speed | Heading |
|---|---|---|---|---|---|
| 2026-04-21 15:22 | 51.89450 | 0.25864 | 351 ft | 0 kts | 218° |
| 2026-04-21 15:28 | 51.89456 | 0.25872 | 356 ft | 3 kts | 218° |
| 2026-04-21 15:28 | 51.89472 | 0.25892 | 360 ft | 3 kts | 218° |
| 2026-04-21 15:29 | 51.89486 | 0.25911 | 360 ft | 3 kts | 246° |
| 2026-04-21 15:29 | 51.89487 | 0.25933 | 360 ft | 3 kts | 307° |
| 2026-04-21 15:29 | 51.89480 | 0.25946 | 360 ft | 2 kts | 313° |
| 2026-04-21 15:29 | 51.89470 | 0.25964 | 358 ft | 1 kts | 313° |
| 2026-04-21 15:33 | 51.89471 | 0.25963 | 358 ft | 1 kts | 313° |
| 2026-04-21 15:33 | 51.89478 | 0.25951 | 359 ft | 3 kts | 313° |
| 2026-04-21 15:33 | 51.89512 | 0.25891 | 357 ft | 12 kts | 313° |
| 2026-04-21 15:34 | 51.89499 | 0.25764 | 351 ft | 17 kts | 224° |
| 2026-04-21 15:34 | 51.89386 | 0.25594 | 359 ft | 26 kts | 222° |
| 2026-04-21 15:34 | 51.89239 | 0.25372 | 357 ft | 31 kts | 223° |
| 2026-04-21 15:34 | 51.89078 | 0.25132 | 351 ft | 32 kts | 223° |
| 2026-04-21 15:35 | 51.88925 | 0.24901 | 351 ft | 27 kts | 223° |
| 2026-04-21 15:35 | 51.88787 | 0.24695 | 357 ft | 28 kts | 223° |
| 2026-04-21 15:35 | 51.88639 | 0.24472 | 350 ft | 29 kts | 223° |
| 2026-04-21 15:35 | 51.88485 | 0.24240 | 348 ft | 29 kts | 223° |
| 2026-04-21 15:36 | 51.88337 | 0.24018 | 348 ft | 29 kts | 223° |
| 2026-04-21 15:36 | 51.88195 | 0.23801 | 345 ft | 28 kts | 223° |
| 2026-04-21 15:36 | 51.88048 | 0.23585 | 339 ft | 29 kts | 222° |
| 2026-04-21 15:36 | 51.87901 | 0.23364 | 338 ft | 29 kts | 223° |
| 2026-04-21 15:37 | 51.87761 | 0.23156 | 335 ft | 21 kts | 223° |
| 2026-04-21 15:37 | 51.87728 | 0.23071 | 338 ft | 9 kts | 269° |
| 2026-04-21 15:37 | 51.87772 | 0.22963 | 339 ft | 14 kts | 313° |
| 2026-04-21 15:37 | 51.87856 | 0.22819 | 335 ft | 21 kts | 312° |
| 2026-04-21 15:38 | 51.87917 | 0.22711 | 331 ft | 9 kts | 313° |
| 2026-04-21 15:38 | 51.87953 | 0.22665 | 331 ft | 4 kts | 5° |
| 2026-04-21 15:38 | 51.87960 | 0.22674 | 331 ft | 0 kts | 38° |
| 2026-04-21 15:39 | 51.87961 | 0.22675 | 333 ft | 1 kts | 38° |
| 2026-04-21 15:39 | 51.87974 | 0.22692 | 331 ft | 4 kts | 39° |
| 2026-04-21 15:39 | 51.88005 | 0.22737 | 329 ft | 9 kts | 45° |
| 2026-04-21 15:40 | 51.88141 | 0.22941 | 330 ft | 57 kts | 43° |
| 2026-04-21 15:40 | 51.88591 | 0.23615 | 345 ft | 117 kts | 43° |
| 2026-04-21 15:40 | 51.89292 | 0.24668 | 573 ft | 147 kts | 44° |
| 2026-04-21 15:40 | 51.90038 | 0.25801 | 1294 ft | 147 kts | 47° |
| 2026-04-21 15:41 | 51.90784 | 0.26930 | 2064 ft | 148 kts | 47° |
| 2026-04-21 15:41 | 51.91576 | 0.28138 | 2474 ft | 171 kts | 46° |
| 2026-04-21 15:41 | 51.92594 | 0.29390 | 2778 ft | 197 kts | 30° |
| 2026-04-21 15:41 | 51.93999 | 0.29978 | 3070 ft | 225 kts | 6° |
| 2026-04-21 15:42 | 51.95619 | 0.29371 | 3444 ft | 255 kts | 334° |
| 2026-04-21 15:42 | 51.96889 | 0.27273 | 4118 ft | 274 kts | 299° |
| 2026-04-21 15:42 | 51.97404 | 0.24261 | 4932 ft | 280 kts | 282° |
| 2026-04-21 15:42 | 51.97658 | 0.21097 | 5704 ft | 284 kts | 278° |
| 2026-04-21 15:43 | 51.97907 | 0.17872 | 6352 ft | 293 kts | 278° |
| 2026-04-21 15:43 | 51.98156 | 0.14581 | 7110 ft | 295 kts | 279° |
| 2026-04-21 15:43 | 51.98455 | 0.11308 | 7941 ft | 293 kts | 280° |
| 2026-04-21 15:43 | 51.98790 | 0.08013 | 8590 ft | 300 kts | 281° |
| 2026-04-21 15:44 | 51.98862 | 0.04673 | 9283 ft | 302 kts | 259° |
| 2026-04-21 15:44 | 51.98399 | 0.01353 | 10112 ft | 302 kts | 256° |
| 2026-04-21 15:44 | 51.97936 | -0.02000 | 10650 ft | 311 kts | 257° |
| 2026-04-21 15:44 | 51.97463 | -0.05559 | 10825 ft | 333 kts | 257° |
| 2026-04-21 15:45 | 51.96968 | -0.09347 | 10997 ft | 354 kts | 257° |
| 2026-04-21 15:45 | 51.96445 | -0.13356 | 11205 ft | 372 kts | 257° |
| 2026-04-21 15:45 | 51.95901 | -0.17527 | 11704 ft | 380 kts | 257° |
| 2026-04-21 15:45 | 51.95355 | -0.21710 | 12193 ft | 387 kts | 257° |
| 2026-04-21 15:46 | 51.94790 | -0.26023 | 12679 ft | 395 kts | 257° |
| 2026-04-21 15:46 | 51.94221 | -0.30364 | 13573 ft | 392 kts | 257° |
| 2026-04-21 15:46 | 51.93654 | -0.34664 | 14464 ft | 388 kts | 257° |
| 2026-04-21 15:46 | 51.93087 | -0.38958 | 15114 ft | 392 kts | 257° |
| 2026-04-21 15:47 | 51.92509 | -0.43313 | 15602 ft | 401 kts | 257° |
| 2026-04-21 15:47 | 51.91918 | -0.47756 | 16265 ft | 402 kts | 257° |
| 2026-04-21 15:47 | 51.91328 | -0.52182 | 17073 ft | 401 kts | 258° |
| 2026-04-21 15:47 | 51.90734 | -0.56618 | 17679 ft | 405 kts | 258° |
| 2026-04-21 15:48 | 51.90143 | -0.61023 | 18345 ft | 407 kts | 258° |
| 2026-04-21 15:48 | 51.89536 | -0.65533 | 18889 ft | 411 kts | 258° |
| 2026-04-21 15:48 | 51.88925 | -0.70058 | 19523 ft | 410 kts | 259° |
| 2026-04-21 15:48 | 51.88315 | -0.74571 | 20173 ft | 409 kts | 260° |
| 2026-04-21 15:49 | 51.87702 | -0.79069 | 20817 ft | 409 kts | 261° |
| 2026-04-21 15:49 | 51.87089 | -0.83570 | 21356 ft | 411 kts | 261° |
| 2026-04-21 15:49 | 51.86471 | -0.88097 | 21866 ft | 413 kts | 261° |
| 2026-04-21 15:49 | 51.85774 | -0.92654 | 22239 ft | 422 kts | 254° |
| 2026-04-21 15:50 | 51.84322 | -0.96786 | 22457 ft | 441 kts | 233° |
| 2026-04-21 15:50 | 51.81969 | -1.00103 | 22831 ft | 455 kts | 217° |
| 2026-04-21 15:50 | 51.79042 | -1.02197 | 23255 ft | 470 kts | 198° |
| 2026-04-21 15:50 | 51.75789 | -1.03103 | 23778 ft | 475 kts | 193° |
| 2026-04-21 15:51 | 51.72509 | -1.03821 | 24181 ft | 477 kts | 193° |
| 2026-04-21 15:51 | 51.69233 | -1.04551 | 24658 ft | 475 kts | 194° |
| 2026-04-21 15:51 | 51.65977 | -1.05346 | 25249 ft | 470 kts | 194° |
| 2026-04-21 15:51 | 51.62764 | -1.06163 | 25851 ft | 467 kts | 194° |
| 2026-04-21 15:52 | 51.59505 | -1.06620 | 26244 ft | 475 kts | 186° |
| 2026-04-21 15:52 | 51.56169 | -1.06493 | 26247 ft | 481 kts | 182° |
| 2026-04-21 15:52 | 51.53957 | -1.06310 | 26264 ft | 481 kts | 182° |
| 2026-04-21 15:52 | 51.49449 | -1.05908 | 26417 ft | 489 kts | 182° |
| 2026-04-21 15:53 | 51.46021 | -1.05652 | 26489 ft | 497 kts | 182° |
| 2026-04-21 15:53 | 51.42538 | -1.05438 | 26560 ft | 504 kts | 183° |
| 2026-04-21 15:53 | 51.39011 | -1.05248 | 26695 ft | 509 kts | 183° |
| 2026-04-21 15:53 | 51.35502 | -1.05062 | 26938 ft | 511 kts | 183° |
| 2026-04-21 15:54 | 51.31947 | -1.04869 | 27348 ft | 508 kts | 183° |
| 2026-04-21 15:54 | 51.28432 | -1.04615 | 27928 ft | 505 kts | 180° |
| 2026-04-21 15:54 | 51.24937 | -1.03692 | 28419 ft | 509 kts | 171° |
| 2026-04-21 15:54 | 51.21545 | -1.01981 | 28795 ft | 515 kts | 161° |
| 2026-04-21 15:55 | 51.18282 | -0.99604 | 29165 ft | 516 kts | 158° |
| 2026-04-21 15:55 | 51.15039 | -0.97142 | 29541 ft | 516 kts | 158° |
| 2026-04-21 15:55 | 51.11799 | -0.94694 | 29994 ft | 514 kts | 158° |
| 2026-04-21 15:55 | 51.08550 | -0.92279 | 30312 ft | 515 kts | 159° |
| 2026-04-21 15:56 | 51.05282 | -0.89889 | 30563 ft | 516 kts | 159° |
| 2026-04-21 15:56 | 51.02059 | -0.87558 | 30900 ft | 515 kts | 159° |
| 2026-04-21 15:56 | 50.98802 | -0.85213 | 31290 ft | 512 kts | 159° |
| 2026-04-21 15:56 | 50.95568 | -0.82889 | 31666 ft | 510 kts | 159° |
| 2026-04-21 15:57 | 50.92336 | -0.80566 | 31999 ft | 509 kts | 159° |
| 2026-04-21 15:57 | 50.89107 | -0.78247 | 32297 ft | 509 kts | 159° |
| 2026-04-21 15:57 | 50.85890 | -0.75917 | 32625 ft | 508 kts | 158° |
| 2026-04-21 15:57 | 50.82797 | -0.73203 | 33032 ft | 508 kts | 151° |
| 2026-04-21 15:58 | 50.79826 | -0.70192 | 33400 ft | 507 kts | 149° |
| 2026-04-21 15:58 | 50.76883 | -0.67112 | 33697 ft | 506 kts | 149° |
| 2026-04-21 15:58 | 50.73949 | -0.64028 | 33973 ft | 506 kts | 149° |
| 2026-04-21 15:58 | 50.71050 | -0.61009 | 34274 ft | 505 kts | 149° |
| 2026-04-21 15:59 | 50.68112 | -0.57985 | 34557 ft | 503 kts | 150° |
| 2026-04-21 15:59 | 50.65175 | -0.54993 | 34847 ft | 501 kts | 150° |
| 2026-04-21 15:59 | 50.62243 | -0.52027 | 35136 ft | 499 kts | 150° |
| 2026-04-21 15:59 | 50.59329 | -0.49091 | 35419 ft | 496 kts | 150° |
| 2026-04-21 16:00 | 50.56417 | -0.46164 | 35653 ft | 496 kts | 150° |
| 2026-04-21 16:00 | 50.53508 | -0.43245 | 35849 ft | 496 kts | 150° |
| 2026-04-21 16:00 | 50.50599 | -0.40327 | 36060 ft | 495 kts | 150° |
| 2026-04-21 16:00 | 50.47692 | -0.37413 | 36315 ft | 494 kts | 150° |
| 2026-04-21 16:01 | 50.44801 | -0.34519 | 36580 ft | 492 kts | 150° |
| 2026-04-21 16:01 | 50.41916 | -0.31634 | 36802 ft | 491 kts | 150° |
| 2026-04-21 16:01 | 50.39071 | -0.28794 | 37026 ft | 490 kts | 150° |
| 2026-04-21 16:01 | 50.36195 | -0.25926 | 37238 ft | 489 kts | 150° |
| 2026-04-21 16:02 | 50.30417 | -0.20181 | 37229 ft | 492 kts | 150° |
| 2026-04-21 16:02 | 50.24638 | -0.14448 | 37216 ft | 490 kts | 150° |
| 2026-04-21 16:03 | 50.18931 | -0.08802 | 37209 ft | 488 kts | 150° |
| 2026-04-21 16:03 | 50.13174 | -0.03125 | 37219 ft | 489 kts | 150° |
| 2026-04-21 16:04 | 50.07068 | 0.01364 | 37204 ft | 482 kts | 168° |
| 2026-04-21 16:04 | 50.01664 | 0.03438 | 37210 ft | 481 kts | 170° |
| 2026-04-21 16:05 | 49.95139 | 0.05878 | 37189 ft | 482 kts | 170° |
| 2026-04-21 16:05 | 49.87563 | 0.08815 | 37184 ft | 483 kts | 169° |
| 2026-04-21 16:06 | 49.82137 | 0.10945 | 37186 ft | 483 kts | 169° |
| 2026-04-21 16:06 | 49.75617 | 0.13497 | 37182 ft | 483 kts | 169° |
| 2026-04-21 16:07 | 49.69094 | 0.16037 | 37186 ft | 483 kts | 169° |
| 2026-04-21 16:07 | 49.62571 | 0.18628 | 37187 ft | 483 kts | 169° |
| 2026-04-21 16:08 | 49.52814 | 0.22578 | 37194 ft | 483 kts | 169° |
| 2026-04-21 16:09 | 49.46341 | 0.25178 | 37148 ft | 482 kts | 169° |
| 2026-04-21 16:09 | 49.39852 | 0.27773 | 37161 ft | 482 kts | 169° |
| 2026-04-21 16:10 | 49.33365 | 0.30360 | 37153 ft | 481 kts | 169° |
| 2026-04-21 16:10 | 49.26887 | 0.32990 | 37150 ft | 481 kts | 168° |
| 2026-04-21 16:11 | 49.20426 | 0.35732 | 37135 ft | 481 kts | 168° |
| 2026-04-21 16:11 | 49.14009 | 0.38454 | 37132 ft | 481 kts | 168° |
| 2026-04-21 16:11 | 49.10746 | 0.39827 | 36213 ft | 494 kts | 169° |
| 2026-04-21 16:12 | 49.07456 | 0.41206 | 35770 ft | 486 kts | 169° |
| 2026-04-21 16:12 | 49.04183 | 0.42577 | 34990 ft | 489 kts | 169° |
| 2026-04-21 16:12 | 49.00900 | 0.43948 | 34387 ft | 489 kts | 170° |
| 2026-04-21 16:12 | 48.97610 | 0.45320 | 33635 ft | 492 kts | 170° |
| 2026-04-21 16:13 | 48.94308 | 0.46695 | 32924 ft | 492 kts | 170° |
| 2026-04-21 16:13 | 48.90997 | 0.48073 | 32225 ft | 492 kts | 170° |
| 2026-04-21 16:13 | 48.87688 | 0.49449 | 31525 ft | 493 kts | 170° |
| 2026-04-21 16:13 | 48.84381 | 0.50823 | 30826 ft | 494 kts | 170° |
| 2026-04-21 16:14 | 48.81048 | 0.52185 | 30093 ft | 494 kts | 172° |
| 2026-04-21 16:14 | 48.77679 | 0.53075 | 29240 ft | 488 kts | 181° |
| 2026-04-21 16:14 | 48.74320 | 0.53136 | 28458 ft | 481 kts | 187° |
| 2026-04-21 16:14 | 48.71023 | 0.53011 | 27774 ft | 480 kts | 187° |
| 2026-04-21 16:15 | 48.67700 | 0.52915 | 27219 ft | 475 kts | 187° |
| 2026-04-21 16:15 | 48.64419 | 0.52844 | 26625 ft | 471 kts | 186° |
| 2026-04-21 16:15 | 48.61154 | 0.52791 | 26113 ft | 466 kts | 186° |
| 2026-04-21 16:15 | 48.57910 | 0.52747 | 25546 ft | 462 kts | 186° |
| 2026-04-21 16:16 | 48.54708 | 0.52706 | 25001 ft | 458 kts | 186° |
| 2026-04-21 16:16 | 48.51519 | 0.52667 | 24459 ft | 455 kts | 186° |
| 2026-04-21 16:16 | 48.48358 | 0.52628 | 23925 ft | 452 kts | 186° |
| 2026-04-21 16:16 | 48.45214 | 0.52588 | 23307 ft | 450 kts | 186° |
| 2026-04-21 16:17 | 48.42134 | 0.52548 | 22710 ft | 446 kts | 185° |
| 2026-04-21 16:17 | 48.39043 | 0.52508 | 22176 ft | 442 kts | 185° |
| 2026-04-21 16:17 | 48.35977 | 0.52469 | 21619 ft | 438 kts | 185° |
| 2026-04-21 16:17 | 48.32942 | 0.52429 | 21090 ft | 434 kts | 185° |
| 2026-04-21 16:18 | 48.29926 | 0.52390 | 20555 ft | 431 kts | 185° |
| 2026-04-21 16:18 | 48.26935 | 0.52351 | 20040 ft | 428 kts | 185° |
| 2026-04-21 16:18 | 48.23970 | 0.52312 | 19522 ft | 425 kts | 185° |
| 2026-04-21 16:18 | 48.21008 | 0.52273 | 18987 ft | 423 kts | 185° |
| 2026-04-21 16:19 | 48.18075 | 0.52234 | 18484 ft | 420 kts | 184° |
| 2026-04-21 16:19 | 48.15158 | 0.52196 | 17912 ft | 418 kts | 184° |
| 2026-04-21 16:19 | 48.12286 | 0.52159 | 17354 ft | 415 kts | 184° |
| 2026-04-21 16:19 | 48.09408 | 0.52122 | 16821 ft | 412 kts | 184° |
| 2026-04-21 16:20 | 48.06559 | 0.52086 | 16321 ft | 408 kts | 184° |
| 2026-04-21 16:20 | 48.03731 | 0.52049 | 15808 ft | 404 kts | 184° |
| 2026-04-21 16:20 | 48.00933 | 0.52014 | 15298 ft | 401 kts | 184° |
| 2026-04-21 16:20 | 47.98157 | 0.51978 | 14818 ft | 397 kts | 184° |
| 2026-04-21 16:21 | 47.95406 | 0.51942 | 14326 ft | 394 kts | 184° |
| 2026-04-21 16:21 | 47.92674 | 0.51907 | 13830 ft | 391 kts | 184° |
| 2026-04-21 16:21 | 47.89962 | 0.51875 | 13275 ft | 388 kts | 184° |
| 2026-04-21 16:21 | 47.87280 | 0.51841 | 12766 ft | 384 kts | 184° |
| 2026-04-21 16:22 | 47.84622 | 0.51806 | 12266 ft | 381 kts | 182° |
| 2026-04-21 16:22 | 47.81979 | 0.51770 | 11775 ft | 378 kts | 184° |
| 2026-04-21 16:22 | 47.79387 | 0.51735 | 11266 ft | 375 kts | 182° |
| 2026-04-21 16:22 | 47.76792 | 0.51704 | 10982 ft | 367 kts | 183° |
| 2026-04-21 16:23 | 47.74279 | 0.51673 | 10821 ft | 356 kts | 181° |
| 2026-04-21 16:23 | 47.71837 | 0.51644 | 10660 ft | 345 kts | 182° |
| 2026-04-21 16:23 | 47.69469 | 0.51612 | 10515 ft | 335 kts | 183° |
| 2026-04-21 16:23 | 47.67167 | 0.51584 | 10376 ft | 326 kts | 183° |
| 2026-04-21 16:24 | 47.64926 | 0.51556 | 10242 ft | 318 kts | 182° |
| 2026-04-21 16:24 | 47.62748 | 0.51528 | 10103 ft | 309 kts | 182° |
| 2026-04-21 16:24 | 47.60607 | 0.51500 | 9849 ft | 306 kts | 182° |
| 2026-04-21 16:24 | 47.60069 | 0.51493 | 9760 ft | 306 kts | 182° |
| 2026-04-21 16:25 | 47.57946 | 0.51465 | 9471 ft | 304 kts | 182° |
| 2026-04-21 16:25 | 47.55836 | 0.51437 | 9165 ft | 302 kts | 182° |
| 2026-04-21 16:25 | 47.53737 | 0.51410 | 8872 ft | 301 kts | 181° |
| 2026-04-21 16:25 | 47.51653 | 0.51384 | 8561 ft | 299 kts | 181° |
| 2026-04-21 16:26 | 47.49603 | 0.51358 | 8275 ft | 298 kts | 180° |
| 2026-04-21 16:26 | 47.47539 | 0.51332 | 7990 ft | 296 kts | 180° |
| 2026-04-21 16:26 | 47.45479 | 0.51305 | 7694 ft | 295 kts | 180° |
| 2026-04-21 16:26 | 47.43430 | 0.51279 | 7394 ft | 294 kts | 179° |
| 2026-04-21 16:27 | 47.41390 | 0.51255 | 7106 ft | 292 kts | 179° |
| 2026-04-21 16:27 | 47.39364 | 0.51037 | 6810 ft | 292 kts | 190° |
| 2026-04-21 16:27 | 47.37412 | 0.50272 | 6572 ft | 289 kts | 196° |
| 2026-04-21 16:27 | 47.35509 | 0.49430 | 6280 ft | 288 kts | 194° |
| 2026-04-21 16:28 | 47.33588 | 0.48618 | 6007 ft | 287 kts | 192° |
| 2026-04-21 16:28 | 47.31665 | 0.47832 | 5727 ft | 285 kts | 191° |
| 2026-04-21 16:28 | 47.29758 | 0.47069 | 5507 ft | 282 kts | 192° |
| 2026-04-21 16:28 | 47.27861 | 0.46765 | 5354 ft | 265 kts | 165° |
| 2026-04-21 16:29 | 47.26222 | 0.47751 | 5238 ft | 250 kts | 140° |
| 2026-04-21 16:29 | 47.25029 | 0.49484 | 5142 ft | 235 kts | 122° |
| 2026-04-21 16:29 | 47.24310 | 0.51567 | 5041 ft | 224 kts | 105° |
| 2026-04-21 16:29 | 47.23896 | 0.53706 | 4960 ft | 216 kts | 103° |
| 2026-04-21 16:30 | 47.23515 | 0.55814 | 4860 ft | 210 kts | 103° |
| 2026-04-21 16:30 | 47.23145 | 0.57856 | 4663 ft | 205 kts | 103° |
| 2026-04-21 16:30 | 47.22781 | 0.59858 | 4426 ft | 198 kts | 102° |
| 2026-04-21 16:30 | 47.22542 | 0.61782 | 4211 ft | 185 kts | 84° |
| 2026-04-21 16:31 | 47.22935 | 0.63471 | 4051 ft | 171 kts | 59° |
| 2026-04-21 16:31 | 47.23838 | 0.64546 | 3850 ft | 170 kts | 25° |
| 2026-04-21 16:31 | 47.24918 | 0.65149 | 3680 ft | 166 kts | 29° |
| 2026-04-21 16:31 | 47.25994 | 0.65758 | 3503 ft | 166 kts | 24° |
| 2026-04-21 16:32 | 47.27106 | 0.66253 | 3328 ft | 165 kts | 22° |
| 2026-04-21 16:32 | 47.28205 | 0.66711 | 3204 ft | 162 kts | 22° |
| 2026-04-21 16:32 | 47.29309 | 0.67163 | 2992 ft | 167 kts | 21° |
| 2026-04-21 16:32 | 47.30427 | 0.67615 | 2765 ft | 166 kts | 22° |
| 2026-04-21 16:33 | 47.31505 | 0.68050 | 2569 ft | 155 kts | 22° |
| 2026-04-21 16:33 | 47.32485 | 0.68441 | 2372 ft | 142 kts | 24° |
| 2026-04-21 16:33 | 47.33432 | 0.68822 | 2180 ft | 139 kts | 23° |
| 2026-04-21 16:33 | 47.34363 | 0.69199 | 1994 ft | 139 kts | 21° |
| 2026-04-21 16:34 | 47.35315 | 0.69585 | 1813 ft | 143 kts | 22° |
| 2026-04-21 16:34 | 47.36282 | 0.69974 | 1604 ft | 143 kts | 23° |
| 2026-04-21 16:34 | 47.37215 | 0.70348 | 1427 ft | 137 kts | 24° |
| 2026-04-21 16:34 | 47.38140 | 0.70722 | 1261 ft | 140 kts | 22° |
| 2026-04-21 16:35 | 47.39094 | 0.71116 | 1044 ft | 144 kts | 19° |
| 2026-04-21 16:35 | 47.40073 | 0.71500 | 895 ft | 147 kts | 19° |
| 2026-04-21 16:35 | 47.41066 | 0.71911 | 743 ft | 146 kts | 20° |
| 2026-04-21 16:35 | 47.42057 | 0.72297 | 528 ft | 147 kts | 21° |
| 2026-04-21 16:36 | 47.43032 | 0.72703 | 431 ft | 150 kts | 20° |
| 2026-04-21 16:36 | 47.44075 | 0.73082 | 1219 ft | 157 kts | 18° |
| 2026-04-21 16:36 | 47.45165 | 0.73473 | 2176 ft | 171 kts | 20° |
| 2026-04-21 16:36 | 47.46388 | 0.73976 | 2789 ft | 199 kts | 22° |
| 2026-04-21 16:37 | 47.47834 | 0.74589 | 2970 ft | 224 kts | 20° |
| 2026-04-21 16:37 | 47.49318 | 0.75196 | 2979 ft | 221 kts | 20° |
| 2026-04-21 16:37 | 47.50876 | 0.75747 | 2990 ft | 242 kts | 9° |
| 2026-04-21 16:37 | 47.52571 | 0.75305 | 3012 ft | 258 kts | 341° |
| 2026-04-21 16:38 | 47.54051 | 0.73695 | 3021 ft | 272 kts | 314° |
| 2026-04-21 16:38 | 47.54924 | 0.71179 | 2984 ft | 281 kts | 285° |
| 2026-04-21 16:38 | 47.54911 | 0.68308 | 2990 ft | 283 kts | 255° |
| 2026-04-21 16:38 | 47.53960 | 0.65818 | 3045 ft | 281 kts | 224° |
| 2026-04-21 16:39 | 47.52457 | 0.63927 | 3002 ft | 284 kts | 213° |
| 2026-04-21 16:39 | 47.50840 | 0.62243 | 3017 ft | 284 kts | 212° |
| 2026-04-21 16:39 | 47.49230 | 0.60564 | 3094 ft | 283 kts | 212° |
| 2026-04-21 16:39 | 47.47627 | 0.58890 | 3524 ft | 287 kts | 212° |
| 2026-04-21 16:40 | 47.46000 | 0.57191 | 3952 ft | 284 kts | 212° |
| 2026-04-21 16:40 | 47.44394 | 0.55520 | 3990 ft | 280 kts | 212° |
| 2026-04-21 16:40 | 47.42815 | 0.53877 | 3985 ft | 276 kts | 212° |
| 2026-04-21 16:40 | 47.41240 | 0.52240 | 4004 ft | 278 kts | 212° |
| 2026-04-21 16:41 | 47.40166 | 0.51211 | 3997 ft | 279 kts | 202° |
| 2026-04-21 16:41 | 47.37713 | 0.50110 | 4014 ft | 276 kts | 188° |
| 2026-04-21 16:41 | 47.35837 | 0.49428 | 3998 ft | 277 kts | 189° |
| 2026-04-21 16:41 | 47.33990 | 0.48725 | 4006 ft | 278 kts | 190° |
| 2026-04-21 16:42 | 47.32116 | 0.47994 | 3982 ft | 278 kts | 191° |
| 2026-04-21 16:42 | 47.30253 | 0.47260 | 4002 ft | 276 kts | 191° |
| 2026-04-21 16:42 | 47.28390 | 0.46657 | 3883 ft | 272 kts | 177° |
| 2026-04-21 16:42 | 47.26586 | 0.47135 | 3584 ft | 259 kts | 148° |
| 2026-04-21 16:43 | 47.25241 | 0.48759 | 3269 ft | 246 kts | 119° |
| 2026-04-21 16:43 | 47.24640 | 0.51031 | 3078 ft | 238 kts | 99° |
| 2026-04-21 16:43 | 47.24245 | 0.53404 | 3006 ft | 237 kts | 101° |
| 2026-04-21 16:43 | 47.23831 | 0.55685 | 3018 ft | 222 kts | 100° |
| 2026-04-21 16:44 | 47.23814 | 0.57787 | 2981 ft | 199 kts | 71° |
| 2026-04-21 16:44 | 47.24371 | 0.59551 | 2980 ft | 183 kts | 62° |
| 2026-04-21 16:44 | 47.24967 | 0.61142 | 2983 ft | 177 kts | 60° |
| 2026-04-21 16:44 | 47.25733 | 0.62566 | 3009 ft | 175 kts | 51° |
| 2026-04-21 16:45 | 47.26515 | 0.63854 | 3002 ft | 161 kts | 51° |
| 2026-04-21 16:45 | 47.27239 | 0.65058 | 2997 ft | 154 kts | 51° |
| 2026-04-21 16:45 | 47.27973 | 0.66246 | 3007 ft | 162 kts | 43° |
| 2026-04-21 16:45 | 47.29037 | 0.66909 | 3006 ft | 173 kts | 20° |
| 2026-04-21 16:46 | 47.30210 | 0.67443 | 2819 ft | 178 kts | 24° |
| 2026-04-21 16:46 | 47.31393 | 0.67977 | 2571 ft | 176 kts | 23° |
| 2026-04-21 16:46 | 47.32562 | 0.68467 | 2348 ft | 172 kts | 21° |
| 2026-04-21 16:46 | 47.33709 | 0.68934 | 2104 ft | 169 kts | 21° |
| 2026-04-21 16:47 | 47.34820 | 0.69381 | 1892 ft | 160 kts | 22° |
| 2026-04-21 16:47 | 47.35839 | 0.69791 | 1719 ft | 148 kts | 22° |
| 2026-04-21 16:47 | 47.36829 | 0.70190 | 1490 ft | 142 kts | 22° |
| 2026-04-21 16:47 | 47.37755 | 0.70566 | 1321 ft | 142 kts | 21° |
| 2026-04-21 16:48 | 47.38716 | 0.70956 | 1083 ft | 143 kts | 20° |
| 2026-04-21 16:48 | 47.39671 | 0.71333 | 951 ft | 143 kts | 22° |
| 2026-04-21 16:48 | 47.40638 | 0.71723 | 755 ft | 143 kts | 20° |
| 2026-04-21 16:48 | 47.41599 | 0.72117 | 546 ft | 144 kts | 19° |
| 2026-04-21 16:49 | 47.42459 | 0.72422 | 393 ft | 82 kts | 39° |
| 2026-04-21 16:49 | 47.42494 | 0.72441 | 369 ft | 0 kts | 161° |